Time;durP1;ratioP1;P1;durP2;ratioP2;P2;SDS_P1;SDS_P2;PMS_P1;PMS_P2;Temp;Humidity;BMP_temperature;BMP_pressure;BME280_temperature;BME280_humidity;BME280_pressure;Samples;Min_cycle;Max_cycle;Signal;HPM_P1;HPM_P2
2021/10/27 00:01:43;;;;;;;9.75;6.45;;;7.90;44.60;;;;;;5061183;28;20123;-69
2021/10/27 00:04:15;;;;;;;10.82;6.45;;;7.90;44.60;;;;;;5055826;28;20048;-68
2021/10/27 00:06:46;;;;;;;10.63;7.43;;;7.90;44.60;;;;;;5056086;28;20045;-68
2021/10/27 00:09:15;;;;;;;11.25;7.88;;;7.90;44.70;;;;;;5058104;28;20056;-69
2021/10/27 00:11:44;;;;;;;11.02;6.90;;;7.80;45.50;;;;;;5058806;28;20041;-67
2021/10/27 00:14:15;;;;;;;12.20;7.00;;;7.80;45.90;;;;;;5057414;28;20063;-68
2021/10/27 00:16:49;;;;;;;12.70;7.25;;;7.80;46.20;;;;;;5063218;28;20059;-68
2021/10/27 00:19:19;;;;;;;8.48;6.38;;;7.80;47.20;;;;;;5055628;28;20072;-68
2021/10/27 00:21:50;;;;;;;11.43;7.05;;;7.90;47.90;;;;;;5059561;28;20504;-68
2021/10/27 00:24:18;;;;;;;13.65;7.40;;;7.80;48.00;;;;;;5063599;28;20048;-68
2021/10/27 00:26:46;;;;;;;11.23;7.07;;;7.90;48.80;;;;;;5058102;28;20242;-68
2021/10/27 00:29:14;;;;;;;11.68;7.65;;;7.90;49.10;;;;;;5055533;28;20041;-67
2021/10/27 00:31:46;;;;;;;11.60;8.73;;;7.90;50.10;;;;;;5057184;28;20063;-68
2021/10/27 00:34:14;;;;;;;12.63;8.90;;;7.90;50.70;;;;;;5053083;28;20037;-68
2021/10/27 00:36:46;;;;;;;16.30;9.30;;;7.90;51.10;;;;;;5056619;28;20045;-69
2021/10/27 00:39:18;;;;;;;16.30;9.45;;;7.90;52.20;;;;;;5060486;28;20499;-68
2021/10/27 00:41:49;;;;;;;16.90;10.00;;;7.70;52.50;;;;;;5059889;28;20053;-68
2021/10/27 00:44:22;;;;;;;16.83;10.35;;;7.70;53.30;;;;;;5072181;28;20069;-68
2021/10/27 00:46:59;;;;;;;18.88;10.75;;;7.70;54.90;;;;;;5064009;28;20556;-67
2021/10/27 00:49:28;;;;;;;14.30;9.85;;;7.60;55.30;;;;;;5012809;28;20048;-68
2021/10/27 00:52:01;;;;;;;16.10;10.48;;;7.50;55.40;;;;;;5059150;28;20059;-68
2021/10/27 00:54:30;;;;;;;20.33;9.88;;;7.50;56.10;;;;;;5062803;28;20101;-68
2021/10/27 00:56:59;;;;;;;15.35;9.13;;;7.40;56.20;;;;;;5064314;28;20135;-68
2021/10/27 00:59:29;;;;;;;17.08;10.95;;;7.30;55.90;;;;;;5060412;28;20231;-69
2021/10/27 01:01:58;;;;;;;17.10;10.85;;;7.40;56.20;;;;;;5064052;28;20087;-69
2021/10/27 01:04:30;;;;;;;16.35;10.55;;;7.40;56.30;;;;;;5061639;28;20110;-69
2021/10/27 01:07:01;;;;;;;17.75;9.75;;;7.30;56.20;;;;;;5064006;28;20044;-68
2021/10/27 01:09:28;;;;;;;19.55;10.63;;;7.30;56.20;;;;;;5063186;28;20126;-69
2021/10/27 01:12:00;;;;;;;14.93;10.93;;;7.30;56.20;;;;;;5056628;28;20075;-69
2021/10/27 01:14:35;;;;;;;19.52;12.65;;;7.30;56.20;;;;;;5061914;28;20044;-69
2021/10/27 01:17:16;;;;;;;15.93;10.93;;;7.30;56.50;;;;;;5064710;28;20455;-69
2021/10/27 01:19:51;;;;;;;15.40;10.85;;;7.20;56.70;;;;;;5061138;28;20098;-69
2021/10/27 01:22:21;;;;;;;15.75;10.38;;;7.20;57.10;;;;;;5061329;28;20076;-69
2021/10/27 01:24:53;;;;;;;16.75;10.93;;;7.10;57.00;;;;;;5068927;28;20071;-69
2021/10/27 01:27:21;;;;;;;16.95;11.02;;;7.20;57.50;;;;;;5059469;28;20079;-68
2021/10/27 01:29:53;;;;;;;20.60;12.02;;;7.10;57.70;;;;;;5058252;28;20071;-69
2021/10/27 01:32:23;;;;;;;21.08;11.85;;;7.20;57.90;;;;;;5065206;28;20040;-68
2021/10/27 01:34:52;;;;;;;21.83;11.95;;;7.10;57.80;;;;;;5057929;28;20076;-69
2021/10/27 01:37:26;;;;;;;42.92;12.98;;;6.90;57.60;;;;;;5062055;28;20101;-68
2021/10/27 01:39:55;;;;;;;26.08;11.98;;;6.80;58.30;;;;;;5063461;28;20051;-68
2021/10/27 01:42:27;;;;;;;23.33;12.20;;;6.80;58.30;;;;;;5059893;28;20064;-67
2021/10/27 01:44:56;;;;;;;18.27;10.88;;;6.70;58.60;;;;;;5061216;28;20072;-68
2021/10/27 01:47:24;;;;;;;19.67;11.15;;;6.70;58.80;;;;;;5065213;28;20131;-67
2021/10/27 01:49:54;;;;;;;28.85;12.45;;;6.70;59.00;;;;;;5053816;28;20128;-67
2021/10/27 01:52:25;;;;;;;18.38;12.27;;;6.60;59.20;;;;;;5060961;28;20465;-68
2021/10/27 01:54:57;;;;;;;30.70;12.18;;;6.60;59.40;;;;;;5059804;28;20519;-68
2021/10/27 01:57:32;;;;;;;21.25;12.05;;;6.60;59.40;;;;;;5059364;28;20036;-69
2021/10/27 02:00:05;;;;;;;21.45;11.45;;;6.60;59.50;;;;;;5054668;28;20045;-68
2021/10/27 02:02:34;;;;;;;21.10;11.80;;;6.60;59.50;;;;;;5052082;28;20041;-68
2021/10/27 02:05:08;;;;;;;17.75;11.00;;;6.60;59.50;;;;;;5055096;28;20504;-69
2021/10/27 02:07:41;;;;;;;33.53;11.68;;;6.50;59.40;;;;;;5066080;28;20044;-69
2021/10/27 02:10:11;;;;;;;26.42;12.18;;;6.40;59.30;;;;;;5060407;28;20064;-69
2021/10/27 02:12:43;;;;;;;17.25;11.00;;;6.40;59.40;;;;;;5063729;28;20044;-68
2021/10/27 02:15:13;;;;;;;14.25;10.25;;;6.30;59.40;;;;;;5060237;28;20055;-69
2021/10/27 02:17:41;;;;;;;15.15;10.07;;;6.30;59.40;;;;;;5054273;28;20075;-69
2021/10/27 02:20:12;;;;;;;15.68;10.55;;;6.30;59.50;;;;;;5060670;28;20568;-69
2021/10/27 02:22:40;;;;;;;15.90;11.75;;;6.30;59.50;;;;;;5056210;28;20509;-68
2021/10/27 02:25:09;;;;;;;15.07;10.88;;;6.30;60.30;;;;;;5058846;28;20132;-68
2021/10/27 02:27:37;;;;;;;18.90;11.38;;;6.30;59.70;;;;;;5065809;28;20098;-69
2021/10/27 02:30:07;;;;;;;15.30;10.43;;;6.30;59.80;;;;;;5058463;28;20045;-68
2021/10/27 02:32:36;;;;;;;12.90;10.15;;;6.30;60.00;;;;;;5059155;28;20048;-69
2021/10/27 02:35:18;;;;;;;13.80;9.85;;;6.30;60.00;;;;;;5058278;28;20072;-68
2021/10/27 02:37:48;;;;;;;13.27;9.43;;;6.20;59.90;;;;;;5061141;28;20045;-68
2021/10/27 02:40:16;;;;;;;15.00;9.68;;;6.20;59.90;;;;;;5058275;28;20569;-68
2021/10/27 02:42:44;;;;;;;12.98;9.55;;;6.20;60.00;;;;;;5066995;28;20326;-68
2021/10/27 02:45:15;;;;;;;12.65;9.60;;;6.20;60.00;;;;;;5055596;28;20468;-68
2021/10/27 02:47:44;;;;;;;14.70;10.30;;;6.20;60.10;;;;;;5064537;28;20053;-68
2021/10/27 02:50:17;;;;;;;16.85;11.80;;;6.30;60.20;;;;;;5058850;28;20096;-68
2021/10/27 02:52:47;;;;;;;16.83;11.48;;;6.30;60.20;;;;;;5058248;28;20072;-68
2021/10/27 02:55:17;;;;;;;19.80;11.52;;;6.20;60.00;;;;;;5057921;28;20052;-68
2021/10/27 02:57:49;;;;;;;16.23;10.55;;;6.20;60.10;;;;;;5065558;28;20047;-68
2021/10/27 03:00:19;;;;;;;15.82;11.93;;;6.20;60.00;;;;;;5056739;28;20206;-68
2021/10/27 03:02:48;;;;;;;18.55;12.43;;;6.10;60.00;;;;;;5061942;28;20450;-68
2021/10/27 03:05:22;;;;;;;19.17;12.18;;;6.20;60.10;;;;;;5058062;28;20067;-69
2021/10/27 03:07:51;;;;;;;18.77;12.48;;;6.10;60.10;;;;;;5059388;28;20110;-68
2021/10/27 03:10:20;;;;;;;17.67;12.45;;;6.10;60.20;;;;;;5060899;28;20051;-68
2021/10/27 03:12:49;;;;;;;19.77;12.32;;;6.20;60.40;;;;;;5059441;28;20048;-68
2021/10/27 03:15:20;;;;;;;19.23;12.13;;;6.20;60.40;;;;;;5058961;28;20055;-68
2021/10/27 03:17:49;;;;;;;23.02;12.75;;;6.20;60.40;;;;;;5065499;28;20542;-68
2021/10/27 03:20:19;;;;;;;23.92;13.90;;;6.20;60.40;;;;;;5059214;28;20086;-68
2021/10/27 03:22:49;;;;;;;44.10;14.30;;;6.20;60.40;;;;;;5060549;28;20539;-68
2021/10/27 03:25:17;;;;;;;30.25;14.30;;;6.20;60.50;;;;;;5065275;28;20052;-68
2021/10/27 03:27:45;;;;;;;37.25;14.05;;;6.20;60.50;;;;;;5060697;28;20386;-68
2021/10/27 03:30:16;;;;;;;43.20;16.58;;;6.20;60.60;;;;;;5056433;28;20068;-68
2021/10/27 03:32:44;;;;;;;33.55;14.57;;;6.30;60.80;;;;;;5063228;28;20119;-68
2021/10/27 03:35:17;;;;;;;43.75;15.90;;;6.40;61.00;;;;;;5060390;28;20504;-67
2021/10/27 03:37:45;;;;;;;59.38;17.67;;;6.40;61.10;;;;;;5060972;28;20052;-68
2021/10/27 03:40:15;;;;;;;54.08;16.55;;;6.50;61.30;;;;;;5060968;28;20051;-68
2021/10/27 03:42:44;;;;;;;34.03;16.30;;;6.50;61.40;;;;;;5059114;28;20582;-68
2021/10/27 03:45:12;;;;;;;44.05;17.55;;;6.50;61.40;;;;;;5057465;28;20052;-68
2021/10/27 03:47:44;;;;;;;49.47;18.75;;;6.50;61.50;;;;;;5063729;28;20047;-67
2021/10/27 03:50:14;;;;;;;41.85;17.48;;;6.60;61.70;;;;;;5055097;28;20140;-68
2021/10/27 03:52:43;;;;;;;56.33;18.27;;;6.60;61.80;;;;;;5057286;28;20072;-68
2021/10/27 03:55:12;;;;;;;41.55;16.33;;;6.60;61.90;;;;;;5065238;28;20170;-67
2021/10/27 03:57:44;;;;;;;43.30;16.88;;;6.50;61.80;;;;;;5056519;28;20128;-68
2021/10/27 04:00:17;;;;;;;32.60;17.58;;;6.50;62.10;;;;;;5060155;28;20041;-68
2021/10/27 04:02:45;;;;;;;32.17;17.48;;;6.50;62.20;;;;;;5057554;28;20044;-68
2021/10/27 04:05:14;;;;;;;35.13;17.77;;;6.60;62.30;;;;;;5056262;28;20036;-68
2021/10/27 04:07:42;;;;;;;39.05;17.55;;;6.60;62.40;;;;;;5060676;28;20049;-67
2021/10/27 04:10:13;;;;;;;39.53;17.67;;;6.60;62.50;;;;;;5055364;28;20044;-68
2021/10/27 04:12:49;;;;;;;27.25;15.77;;;6.50;62.30;;;;;;5062816;28;20032;-67
2021/10/27 04:15:23;;;;;;;30.00;16.52;;;6.60;62.50;;;;;;5060325;28;20040;-68
2021/10/27 04:17:51;;;;;;;29.20;17.00;;;6.60;62.50;;;;;;5055312;28;20667;-67
2021/10/27 04:20:22;;;;;;;27.20;15.38;;;6.60;62.60;;;;;;5050014;28;20071;-67
2021/10/27 04:22:56;;;;;;;27.47;16.80;;;6.60;62.60;;;;;;5051008;28;20044;-68
2021/10/27 04:25:24;;;;;;;26.17;15.23;;;6.60;62.70;;;;;;5053761;28;20044;-68
2021/10/27 04:28:00;;;;;;;27.37;17.07;;;6.60;62.70;;;;;;5053756;28;20189;-68
2021/10/27 04:30:30;;;;;;;28.13;16.60;;;6.50;62.70;;;;;;5044629;28;20119;-68
2021/10/27 04:32:58;;;;;;;26.40;16.65;;;6.50;62.60;;;;;;5045490;28;20040;-68
2021/10/27 04:35:26;;;;;;;24.92;16.70;;;6.60;62.70;;;;;;5051861;28;20067;-68
2021/10/27 04:37:59;;;;;;;25.75;15.50;;;6.50;62.60;;;;;;5052191;28;20041;-68
2021/10/27 04:40:27;;;;;;;25.90;15.40;;;6.60;62.70;;;;;;5049111;28;20041;-67
2021/10/27 04:42:55;;;;;;;24.50;15.68;;;6.60;62.80;;;;;;5050848;28;20052;-67
2021/10/27 04:45:40;;;;;;;24.67;15.82;;;6.70;63.10;;;;;;5052018;28;20048;-68
2021/10/27 04:48:13;;;;;;;24.10;15.45;;;6.70;63.20;;;;;;5050910;28;20052;-68
2021/10/27 04:50:45;;;;;;;22.23;14.85;;;6.70;63.30;;;;;;5044253;28;20056;-68
2021/10/27 04:53:16;;;;;;;22.73;15.40;;;6.60;63.40;;;;;;5049926;28;20080;-68
2021/10/27 04:55:45;;;;;;;24.10;14.93;;;6.60;63.30;;;;;;5050185;28;20123;-68
2021/10/27 04:58:13;;;;;;;25.25;15.55;;;6.70;63.40;;;;;;5049176;28;20666;-67
2021/10/27 05:00:43;;;;;;;27.25;16.83;;;6.70;63.50;;;;;;5055244;28;20549;-68
2021/10/27 05:03:12;;;;;;;27.58;16.58;;;6.70;63.50;;;;;;5053932;28;20055;-67
2021/10/27 05:05:46;;;;;;;28.38;18.00;;;6.70;63.60;;;;;;5046803;28;20041;-67
2021/10/27 05:08:22;;;;;;;33.65;19.20;;;6.80;63.70;;;;;;5049075;28;20072;-67
2021/10/27 05:10:52;;;;;;;32.60;18.80;;;6.80;63.70;;;;;;5045135;28;20057;-68
2021/10/27 05:13:20;;;;;;;31.42;18.58;;;6.90;63.90;;;;;;5048533;28;20080;-68
2021/10/27 05:15:54;;;;;;;32.10;19.75;;;6.90;63.90;;;;;;5047838;28;20037;-68
2021/10/27 05:18:30;;;;;;;31.70;19.10;;;6.80;63.80;;;;;;5048858;28;20063;-68
2021/10/27 05:21:02;;;;;;;30.80;18.73;;;6.90;63.90;;;;;;5053110;28;20156;-68
2021/10/27 05:23:30;;;;;;;34.42;19.45;;;6.90;63.90;;;;;;5052074;28;20136;-68
2021/10/27 05:26:00;;;;;;;32.13;19.13;;;6.90;63.80;;;;;;5052592;28;20122;-68
2021/10/27 05:28:28;;;;;;;35.53;19.15;;;7.00;63.90;;;;;;5050622;28;20227;-68
2021/10/27 05:31:01;;;;;;;31.23;18.55;;;7.00;63.60;;;;;;5047064;28;20045;-68
2021/10/27 05:33:30;;;;;;;31.15;18.95;;;7.10;63.60;;;;;;5051708;28;20043;-67
2021/10/27 05:35:58;;;;;;;30.58;18.67;;;7.10;63.50;;;;;;5053159;28;20136;-68
2021/10/27 05:38:26;;;;;;;29.65;18.42;;;7.10;63.10;;;;;;5051963;28;20136;-68
2021/10/27 05:40:55;;;;;;;30.80;20.92;;;7.10;62.70;;;;;;5055622;28;20036;-68
2021/10/27 05:43:28;;;;;;;29.48;19.20;;;7.10;62.40;;;;;;5053813;28;20051;-68
2021/10/27 05:46:01;;;;;;;29.60;18.20;;;7.20;62.10;;;;;;5053083;28;20046;-68
2021/10/27 05:48:38;;;;;;;29.52;17.33;;;7.10;61.30;;;;;;5052763;28;20072;-68
2021/10/27 05:51:22;;;;;;;25.63;16.63;;;7.10;61.20;;;;;;5052035;28;20044;-68
2021/10/27 05:56:38;;;;;;;29.77;17.85;;;7.10;60.00;;;;;;5050604;28;20509;-68
2021/10/27 05:59:12;;;;;;;27.00;17.25;;;7.10;59.60;;;;;;5049607;28;20068;-66
2021/10/27 06:01:41;;;;;;;28.50;16.60;;;7.10;59.00;;;;;;5050290;28;20040;-68
2021/10/27 06:04:10;;;;;;;27.35;16.50;;;7.00;58.20;;;;;;5052584;28;20049;-68
2021/10/27 06:06:39;;;;;;;26.52;16.95;;;7.10;58.40;;;;;;5053377;28;20381;-66
2021/10/27 06:09:08;;;;;;;25.30;17.02;;;7.10;57.60;;;;;;5048139;28;20069;-67
2021/10/27 06:11:37;;;;;;;29.27;17.88;;;7.10;56.40;;;;;;5050038;28;20066;-67
2021/10/27 06:14:06;;;;;;;27.08;16.45;;;7.10;57.00;;;;;;5047739;28;20067;-68
2021/10/27 06:16:35;;;;;;;26.17;16.02;;;7.20;56.90;;;;;;5050478;28;20041;-67
2021/10/27 06:19:06;;;;;;;25.48;16.05;;;7.20;56.60;;;;;;5047550;28;20036;-67
2021/10/27 06:21:39;;;;;;;24.00;16.42;;;7.30;56.50;;;;;;5046802;28;20045;-68
2021/10/27 06:24:13;;;;;;;28.30;15.63;;;7.30;56.10;;;;;;5051303;28;20127;-69
2021/10/27 06:26:44;;;;;;;25.88;15.60;;;7.40;55.90;;;;;;5050705;28;20171;-68
2021/10/27 06:29:20;;;;;;;26.70;16.85;;;7.40;55.00;;;;;;5047884;28;20063;-68
2021/10/27 06:31:51;;;;;;;25.17;16.17;;;7.30;53.30;;;;;;5049362;28;20701;-68
2021/10/27 06:34:31;;;;;;;27.33;15.25;;;7.20;54.00;;;;;;5051660;28;20110;-68
2021/10/27 06:37:13;;;;;;;24.55;14.02;;;7.10;53.60;;;;;;5049464;28;20052;-68
2021/10/27 06:48:04;;;;;;;20.55;13.15;;;7.20;52.10;;;;;;5049545;28;20462;-68
2021/10/27 06:50:36;;;;;;;21.27;13.23;;;7.10;51.00;;;;;;5042182;28;20136;-67
2021/10/27 06:53:07;;;;;;;21.42;14.80;;;7.20;52.40;;;;;;5070273;28;20229;-68
2021/10/27 06:55:39;;;;;;;22.63;13.57;;;7.10;51.20;;;;;;5048452;28;20290;-68
2021/10/27 06:58:10;;;;;;;25.40;14.13;;;7.10;52.30;;;;;;5059838;28;20057;-68
2021/10/27 07:00:46;;;;;;;22.15;14.35;;;7.10;51.20;;;;;;5055121;28;20068;-66
2021/10/27 07:06:38;;;;;;;24.52;13.90;;;7.20;51.40;;;;;;5047357;28;20114;-68
2021/10/27 07:15:04;;;;;;;21.00;13.60;;;7.40;49.50;;;;;;5050613;28;20048;-67
2021/10/27 07:17:33;;;;;;;18.95;12.25;;;7.50;48.40;;;;;;5048934;28;20068;-68
2021/10/27 07:20:01;;;;;;;21.25;12.38;;;7.70;47.10;;;;;;5054054;28;20037;-68
2021/10/27 07:22:32;;;;;;;16.83;12.27;;;7.70;45.30;;;;;;5049057;28;20079;-67
2021/10/27 07:25:02;;;;;;;20.73;13.57;;;7.80;44.30;;;;;;5051617;28;20072;-68
2021/10/27 07:27:33;;;;;;;16.15;11.88;;;7.80;44.50;;;;;;5050377;28;20044;-67
2021/10/27 07:30:01;;;;;;;21.40;12.70;;;7.90;44.20;;;;;;5048541;28;20083;-68
2021/10/27 07:32:32;;;;;;;18.08;11.68;;;8.00;43.40;;;;;;5051501;28;20041;-67
2021/10/27 07:35:03;;;;;;;29.58;18.70;;;8.10;42.40;;;;;;5050473;28;20123;-67
2021/10/27 07:40:36;;;;;;;17.20;11.98;;;8.20;41.30;;;;;;5049498;28;20040;-68
2021/10/27 07:43:08;;;;;;;22.33;13.00;;;8.20;42.10;;;;;;5049963;28;20131;-67
2021/10/27 07:45:38;;;;;;;18.57;11.90;;;8.30;40.70;;;;;;5049757;28;20614;-67
2021/10/27 07:48:11;;;;;;;17.85;10.88;;;8.50;39.90;;;;;;5052662;28;20295;-67
2021/10/27 07:50:44;;;;;;;18.77;11.37;;;8.50;38.60;;;;;;5049650;28;20047;-67
2021/10/27 07:53:15;;;;;;;18.40;12.40;;;8.50;37.80;;;;;;5051848;28;20830;-67
2021/10/27 07:55:49;;;;;;;18.00;11.82;;;8.70;37.00;;;;;;5052353;28;20044;-69
2021/10/27 07:58:23;;;;;;;16.25;10.95;;;8.70;36.90;;;;;;5049961;28;20075;-69
2021/10/27 08:00:56;;;;;;;21.40;11.57;;;8.70;36.90;;;;;;5051661;28;20063;-67
2021/10/27 08:03:26;;;;;;;16.17;11.38;;;8.90;37.00;;;;;;5050016;28;20061;-67
2021/10/27 08:05:56;;;;;;;17.85;11.50;;;8.80;34.70;;;;;;5048669;28;20052;-68
2021/10/27 08:08:28;;;;;;;17.13;12.32;;;8.80;32.70;;;;;;5053687;28;20504;-68
2021/10/27 08:11:00;;;;;;;19.38;11.25;;;9.00;35.00;;;;;;5055201;28;20040;-68
2021/10/27 08:13:28;;;;;;;16.83;12.02;;;8.90;33.40;;;;;;5047443;28;20041;-68
2021/10/27 08:16:03;;;;;;;19.10;11.90;;;9.00;33.60;;;;;;5056048;28;20045;-68
2021/10/27 08:18:31;;;;;;;16.50;11.65;;;9.10;33.00;;;;;;5050693;28;20073;-68
2021/10/27 08:21:02;;;;;;;16.80;11.73;;;9.20;33.60;;;;;;5050684;28;20052;-67
2021/10/27 08:23:39;;;;;;;15.45;11.75;;;9.20;32.20;;;;;;5053729;28;20045;-67
2021/10/27 08:26:17;;;;;;;17.30;12.45;;;9.10;31.80;;;;;;5049689;28;20048;-67
2021/10/27 08:28:55;;;;;;;16.83;11.35;;;9.20;32.30;;;;;;5049200;28;20439;-67
2021/10/27 08:31:34;;;;;;;16.95;11.73;;;9.30;31.70;;;;;;5050658;28;20518;-68
2021/10/27 08:34:13;;;;;;;15.98;11.30;;;9.50;29.60;;;;;;5053860;28;20045;-67
2021/10/27 08:36:47;;;;;;;13.07;11.07;;;9.40;30.80;;;;;;5049852;28;20041;-67
2021/10/27 08:39:19;;;;;;;17.77;11.60;;;9.50;30.00;;;;;;5055540;28;20049;-67
2021/10/27 08:41:51;;;;;;;16.73;10.88;;;9.60;28.90;;;;;;5050981;28;20037;-67
2021/10/27 08:44:24;;;;;;;15.40;11.00;;;9.60;29.30;;;;;;5047282;28;20175;-68
2021/10/27 08:46:54;;;;;;;14.75;11.25;;;9.70;28.60;;;;;;5051061;28;20531;-68
2021/10/27 08:49:27;;;;;;;17.58;12.15;;;10.00;27.70;;;;;;5050151;28;20512;-68
2021/10/27 08:51:57;;;;;;;17.70;10.52;;;10.00;25.50;;;;;;5048791;28;20040;-68
2021/10/27 08:54:33;;;;;;;15.23;9.95;;;10.00;24.80;;;;;;5056594;28;20036;-68
2021/10/27 08:57:04;;;;;;;15.35;10.90;;;10.10;25.10;;;;;;5058517;28;20507;-68
2021/10/27 08:59:40;;;;;;;15.68;10.70;;;10.10;25.30;;;;;;5053199;28;20053;-68
2021/10/27 09:02:28;;;;;;;14.98;9.95;;;10.40;25.40;;;;;;5060832;28;20132;-68
2021/10/27 10:06:23;;;;;;;14.45;9.43;;;12.20;11.60;;;;;;5058722;28;20039;-68
2021/10/27 10:08:53;;;;;;;20.63;14.82;;;12.40;11.50;;;;;;5055116;28;20037;-68
2021/10/27 10:11:26;;;;;;;13.55;9.82;;;12.50;10.70;;;;;;5058766;28;20045;-69
2021/10/27 10:14:00;;;;;;;12.60;9.23;;;12.50;9.90;;;;;;5051219;28;20044;-69
2021/10/27 10:16:31;;;;;;;11.57;8.95;;;12.60;9.50;;;;;;5059111;28;20454;-68
2021/10/27 10:19:05;;;;;;;12.45;8.10;;;12.70;9.70;;;;;;5055965;28;20048;-69
2021/10/27 10:21:42;;;;;;;13.18;8.77;;;12.70;8.40;;;;;;5048298;28;20053;-67
2021/10/27 10:24:34;;;;;;;12.98;8.52;;;13.00;8.10;;;;;;5039875;28;20155;-68
2021/10/27 10:27:13;;;;;;;9.98;7.78;;;13.10;7.50;;;;;;5049384;28;20041;-69
2021/10/27 10:29:59;;;;;;;13.98;7.85;;;13.00;6.40;;;;;;5039072;28;20044;-69
2021/10/27 10:32:40;;;;;;;12.73;8.35;;;13.20;6.60;;;;;;5023429;28;20074;-67
2021/10/27 10:35:15;;;;;;;10.43;7.50;;;13.30;5.60;;;;;;5045763;28;20094;-68
2021/10/27 10:38:00;;;;;;;10.35;7.65;;;13.50;5.10;;;;;;5045415;28;20177;-68
2021/10/27 10:40:47;;;;;;;9.98;7.97;;;13.50;4.60;;;;;;5044539;28;20045;-67
2021/10/27 10:59:46;;;;;;;9.93;5.63;;;14.00;1.00;;;;;;5049973;28;20504;-67
2021/10/27 11:22:30;;;;;;;7.22;3.78;;;14.40;1.00;;;;;;5032616;28;20068;-68
2021/10/27 11:25:05;;;;;;;8.38;3.67;;;14.50;1.00;;;;;;5046125;28;20060;-68
2021/10/27 11:39:31;;;;;;;5.47;4.63;;;14.50;1.00;;;;;;5041954;28;20493;-68
2021/10/27 11:42:08;;;;;;;4.75;3.00;;;14.50;1.00;;;;;;5035070;28;20144;-68
2021/10/27 11:44:45;;;;;;;5.40;3.13;;;14.60;1.00;;;;;;5044185;28;20171;-68
2021/10/27 11:47:14;;;;;;;5.15;2.60;;;14.60;1.00;;;;;;5039056;28;20337;-68
2021/10/27 11:49:54;;;;;;;5.30;3.90;;;14.80;1.00;;;;;;5045224;28;20071;-68
2021/10/27 11:52:32;;;;;;;6.45;4.47;;;14.80;1.00;;;;;;5035719;28;20074;-68
2021/10/27 11:55:06;;;;;;;7.28;4.53;;;14.60;1.00;;;;;;5028789;28;20505;-68
2021/10/27 11:57:38;;;;;;;5.07;4.03;;;14.40;1.00;;;;;;5047754;28;20098;-67
2021/10/27 12:00:26;;;;;;;5.85;3.70;;;14.60;1.00;;;;;;5055314;28;20059;-67
2021/10/27 12:03:01;;;;;;;5.78;3.70;;;14.80;1.00;;;;;;5043135;28;20047;-68
2021/10/27 12:05:35;;;;;;;6.93;4.85;;;14.80;1.00;;;;;;5051077;28;20053;-68
2021/10/27 12:11:09;;;;;;;6.30;4.93;;;14.90;1.00;;;;;;5052321;28;20044;-68
2021/10/27 12:13:50;;;;;;;7.68;5.28;;;15.00;1.00;;;;;;5040866;28;20051;-68
2021/10/27 12:19:22;;;;;;;6.72;4.38;;;15.00;1.00;;;;;;5056863;28;20560;-66
2021/10/27 12:21:52;;;;;;;6.22;3.90;;;15.00;1.00;;;;;;5040489;28;20044;-67
2021/10/27 12:24:25;;;;;;;7.30;4.68;;;15.10;1.00;;;;;;5056646;28;20076;-68
2021/10/27 12:27:01;;;;;;;7.18;4.53;;;14.90;1.00;;;;;;5063549;28;20052;-68
2021/10/27 12:29:39;;;;;;;6.05;4.20;;;15.00;1.00;;;;;;5054113;28;20564;-68
2021/10/27 12:32:10;;;;;;;5.80;4.10;;;15.10;1.00;;;;;;5043621;28;20539;-68
2021/10/27 12:34:47;;;;;;;6.65;4.05;;;15.00;1.00;;;;;;5052010;28;20135;-68
2021/10/27 12:37:22;;;;;;;4.72;4.05;;;15.10;1.00;;;;;;5052537;28;20496;-68
2021/10/27 12:39:50;;;;;;;6.60;4.20;;;15.10;1.00;;;;;;5055590;28;20353;-67
2021/10/27 12:42:21;;;;;;;4.15;3.65;;;15.10;1.00;;;;;;5043576;28;20428;-67
2021/10/27 12:44:51;;;;;;;5.20;3.80;;;15.30;1.00;;;;;;5052930;28;20117;-67
2021/10/27 12:47:25;;;;;;;9.05;3.90;;;15.20;1.00;;;;;;5060715;28;20041;-67
2021/10/27 12:50:05;;;;;;;5.32;3.70;;;15.30;1.00;;;;;;5058463;28;20040;-67
2021/10/27 12:52:38;;;;;;;7.25;4.70;;;15.10;1.00;;;;;;5039644;28;20046;-67
2021/10/27 12:55:21;;;;;;;18.35;4.70;;;15.20;1.00;;;;;;5059913;28;20055;-67
2021/10/27 12:57:59;;;;;;;5.57;4.47;;;15.20;1.00;;;;;;5060686;28;20040;-68
2021/10/27 13:00:37;;;;;;;7.53;5.00;;;15.30;1.00;;;;;;5054757;28;20135;-67
2021/10/27 13:03:41;;;;;;;6.50;4.00;;;15.40;1.00;;;;;;5041728;28;20044;-67
2021/10/27 13:06:24;;;;;;;7.28;3.80;;;15.50;1.00;;;;;;5055091;28;20516;-66
2021/10/27 13:11:53;;;;;;;4.03;3.25;;;15.40;1.00;;;;;;5050525;28;20045;-68
2021/10/27 13:14:39;;;;;;;7.80;3.08;;;15.40;1.00;;;;;;5055964;28;20084;-67
2021/10/27 13:20:14;;;;;;;6.35;3.67;;;15.30;1.00;;;;;;5057639;28;20084;-68
2021/10/27 13:22:54;;;;;;;4.72;2.95;;;15.40;1.00;;;;;;5042803;28;20483;-68
2021/10/27 13:31:03;;;;;;;2.90;2.10;;;15.70;1.00;;;;;;5053387;28;20045;-67
2021/10/27 13:33:33;;;;;;;3.22;2.50;;;15.60;1.00;;;;;;5047852;28;20045;-67
2021/10/27 13:36:05;;;;;;;3.55;2.13;;;15.50;1.00;;;;;;5052077;28;20043;-67
2021/10/27 13:38:37;;;;;;;3.40;2.20;;;15.40;1.00;;;;;;5056090;28;20040;-67
2021/10/27 13:41:19;;;;;;;4.35;2.40;;;15.50;1.00;;;;;;5062959;28;20080;-68
2021/10/27 13:43:52;;;;;;;3.75;2.40;;;15.50;1.00;;;;;;5046667;28;20193;-67
2021/10/27 13:46:34;;;;;;;4.68;2.28;;;15.70;1.00;;;;;;5050774;28;20098;-67
2021/10/27 14:06:02;;;;;;;2.35;1.80;;;15.40;1.00;;;;;;5058021;28;20037;-67
2021/10/27 14:08:50;;;;;;;6.05;2.22;;;15.40;1.00;;;;;;5059027;28;20102;-67
2021/10/27 14:11:26;;;;;;;3.03;2.33;;;15.30;1.00;;;;;;5053302;28;20508;-67
2021/10/27 14:14:10;;;;;;;2.97;2.00;;;15.40;1.00;;;;;;5036324;28;20881;-67
2021/10/27 14:48:15;;;;;;;3.45;1.70;;;15.30;1.00;;;;;;5061778;28;20215;-67
2021/10/27 15:21:48;;;;;;;7.43;2.17;;;14.90;1.00;;;;;;5050380;28;20137;-68
2021/10/27 15:24:37;;;;;;;3.05;1.80;;;14.80;1.00;;;;;;5021054;28;20140;-67
2021/10/27 15:33:25;;;;;;;4.05;1.70;;;14.80;1.00;;;;;;5016915;28;20140;-67
2021/10/27 15:41:39;;;;;;;3.72;2.40;;;14.60;1.00;;;;;;5053079;28;20045;-68
2021/10/27 15:44:19;;;;;;;2.35;1.73;;;14.60;1.00;;;;;;5040794;28;20492;-67
2021/10/27 15:52:22;;;;;;;2.88;1.65;;;14.40;1.00;;;;;;5033428;28;20050;-69
2021/10/27 15:54:55;;;;;;;3.08;1.50;;;14.40;1.00;;;;;;5053013;28;20049;-67
2021/10/27 15:57:24;;;;;;;2.75;1.50;;;14.40;1.00;;;;;;5056883;28;20129;-67
2021/10/27 15:59:56;;;;;;;2.58;1.60;;;14.30;1.00;;;;;;5054543;28;20105;-66
2021/10/27 16:02:29;;;;;;;4.38;1.63;;;14.20;1.00;;;;;;5032970;28;20588;-66
2021/10/27 16:04:59;;;;;;;1.95;1.63;;;14.10;1.00;;;;;;5057095;28;20048;-66
2021/10/27 16:07:35;;;;;;;4.10;2.03;;;14.00;1.00;;;;;;5055197;28;20054;-67
2021/10/27 16:10:14;;;;;;;5.30;1.83;;;13.90;1.00;;;;;;5054505;28;20522;-67
2021/10/27 16:12:42;;;;;;;4.07;2.75;;;13.80;1.00;;;;;;5035818;28;20048;-68
2021/10/27 16:15:17;;;;;;;5.53;3.90;;;13.50;1.00;;;;;;5050412;28;20060;-68
2021/10/27 16:17:46;;;;;;;2.35;1.95;;;13.50;1.00;;;;;;5053556;28;20068;-66
2021/10/27 16:20:19;;;;;;;8.07;2.90;;;13.50;1.00;;;;;;5051043;28;20447;-67
2021/10/27 16:22:52;;;;;;;4.43;2.55;;;13.30;1.00;;;;;;5034878;28;20044;-67
2021/10/27 16:25:20;;;;;;;6.85;3.97;;;13.20;1.00;;;;;;5053616;28;20233;-67
2021/10/27 16:27:49;;;;;;;8.75;4.60;;;13.20;1.00;;;;;;5054176;28;20872;-67
2021/10/27 16:30:23;;;;;;;8.73;4.45;;;13.40;1.00;;;;;;5048442;28;20452;-67
2021/10/27 16:32:51;;;;;;;6.45;4.05;;;13.20;1.00;;;;;;5045157;28;20061;-66
2021/10/27 16:35:24;;;;;;;9.40;4.45;;;13.10;1.00;;;;;;5056140;28;20041;-67
2021/10/27 16:37:57;;;;;;;10.10;5.03;;;12.90;2.80;;;;;;5050818;28;20504;-67
2021/10/27 16:40:27;;;;;;;9.88;5.72;;;12.80;3.60;;;;;;5051348;28;20504;-66
2021/10/27 16:42:56;;;;;;;8.07;5.53;;;12.70;6.60;;;;;;5034605;28;20040;-68
2021/10/27 16:45:32;;;;;;;11.52;5.15;;;12.60;8.10;;;;;;5049232;28;20080;-67
2021/10/27 16:48:01;;;;;;;10.13;5.32;;;12.60;9.50;;;;;;5059776;28;20045;-67
2021/10/27 16:50:34;;;;;;;7.22;4.95;;;12.50;10.60;;;;;;5048312;28;20151;-67
2021/10/27 16:53:04;;;;;;;8.65;5.60;;;12.50;12.30;;;;;;5034705;28;20049;-69
2021/10/27 16:55:36;;;;;;;9.20;5.20;;;12.40;13.10;;;;;;5046411;28;20095;-66
2021/10/27 16:58:05;;;;;;;9.27;5.15;;;12.50;14.90;;;;;;5051015;28;20421;-67
2021/10/27 17:00:38;;;;;;;10.45;5.15;;;12.40;15.20;;;;;;5039323;28;20053;-68
2021/10/27 17:03:07;;;;;;;9.82;5.72;;;12.30;16.10;;;;;;5014015;28;20049;-67
2021/10/27 17:05:46;;;;;;;6.97;4.88;;;12.10;17.80;;;;;;5051539;28;20131;-67
2021/10/27 17:08:18;;;;;;;9.98;5.13;;;12.10;18.40;;;;;;5054428;28;20581;-67
2021/10/27 17:10:49;;;;;;;7.30;4.57;;;12.10;20.00;;;;;;5050367;28;20047;-68
2021/10/27 17:13:19;;;;;;;7.05;4.75;;;11.90;21.50;;;;;;5033142;28;20567;-68
2021/10/27 17:15:50;;;;;;;8.02;5.25;;;12.00;21.80;;;;;;5056820;28;20124;-68
2021/10/27 17:18:21;;;;;;;10.00;6.60;;;12.00;22.50;;;;;;5057976;28;20041;-67